EKFA weather

Frooba Heliport
Frooba, Faroe Islands

Public forecast

Using degrees Celsius for public forecast. Weather courtesy of forecast.io.

METAR (pilot weather report)

Closest report is Vagar Airport, 34.3 nm (63.6 km) NNW. Retrieved 2019/07/20 04:20 UTC (0 seconds ago):

EKVG 200420Z AUTO 12008KT 6000 -RA BKN005/// 11/11 Q1001

TAF (pilot weather forecast)

Forecast is more than 12 hours old.

Closest forecast is Vagar Airport, 34.3 nm (63.6 km) NNW. Retrieved 2017/08/20 00:36 UTC (2 years ago):

TAF TAF EKVG 200034Z 2000/2012 33018KT 9000 FEW007 TEMPO 2003/2006 34025G35KT 4000 DZRA BKN006